<?xml version="1.0" encoding="UTF-8" standalone="no" ?>
<gpx xmlns="http://www.topografix.com/GPX/1/1" xmlns:xsi="http://www.w3.org/2001/XMLSchema-instance" xsi:schemaLocation="http://www.topografix.com/GPX/1/1 http://www.topografix.com/GPX/1/1/gpx.xsd" version="1.1" creator="VisuGPX - https://www.visugpx.com">
  <metadata>
    <name>Clm ind.GP Henri DESGRANGE   1er étape  40,473km</name>
    <desc><![CDATA[Clm ind  GP Henri DESGRANGE]]></desc>
  </metadata>
  <trk>
    <name><![CDATA[--Condom-- OR-6031851:clm Grand Prix Henry Desgrange]]></name>
    <trkseg>
      <trkpt lat="43.95853" lon="0.37482">
        <ele>78</ele>
        <time>2016-05-09T16:00:37Z</time>
      </trkpt>
      <trkpt lat="43.95712" lon="0.37651">
        <ele>84</ele>
        <time>2016-05-09T16:32:37Z</time>
      </trkpt>
      <trkpt lat="43.9701" lon="0.40303">
        <ele>173</ele>
        <time>2016-05-09T18:36:37Z</time>
      </trkpt>
      <trkpt lat="43.98189" lon="0.41574">
        <ele>161</ele>
        <time>2016-05-09T20:44:37Z</time>
      </trkpt>
      <trkpt lat="43.98531" lon="0.41542">
        <ele>149</ele>
        <time>2016-05-09T22:28:37Z</time>
      </trkpt>
      <trkpt lat="43.9883" lon="0.42369">
        <ele>108</ele>
        <time>2016-05-09T23:54:37Z</time>
      </trkpt>
      <trkpt lat="43.99639" lon="0.43177">
        <ele>110</ele>
        <time>2016-05-10T01:42:37Z</time>
      </trkpt>
      <trkpt lat="44.00722" lon="0.43547">
        <ele>94</ele>
        <time>2016-05-10T04:04:37Z</time>
      </trkpt>
      <trkpt lat="44.00801" lon="0.43775">
        <ele>93</ele>
        <time>2016-05-10T04:48:37Z</time>
      </trkpt>
      <trkpt lat="44.01721" lon="0.44263">
        <ele>97</ele>
        <time>2016-05-10T06:02:37Z</time>
      </trkpt>
      <trkpt lat="44.02276" lon="0.45247">
        <ele>129</ele>
        <time>2016-05-10T07:42:37Z</time>
      </trkpt>
      <trkpt lat="44.02569" lon="0.45469">
        <ele>128</ele>
        <time>2016-05-10T08:24:37Z</time>
      </trkpt>
      <trkpt lat="44.02872" lon="0.46451">
        <ele>104</ele>
        <time>2016-05-10T09:12:37Z</time>
      </trkpt>
      <trkpt lat="44.03549" lon="0.4691">
        <ele>99</ele>
        <time>2016-05-10T09:52:37Z</time>
      </trkpt>
      <trkpt lat="44.03875" lon="0.48058">
        <ele>143</ele>
        <time>2016-05-10T10:42:37Z</time>
      </trkpt>
      <trkpt lat="44.04159" lon="0.48107">
        <ele>159</ele>
        <time>2016-05-10T11:40:37Z</time>
      </trkpt>
      <trkpt lat="44.04121" lon="0.48776">
        <ele>141</ele>
        <time>2016-05-10T12:46:37Z</time>
      </trkpt>
      <trkpt lat="44.04784" lon="0.49475">
        <ele>120</ele>
        <time>2016-05-10T13:38:37Z</time>
      </trkpt>
      <trkpt lat="44.04874" lon="0.50168">
        <ele>108</ele>
        <time>2016-05-10T14:06:37Z</time>
      </trkpt>
      <trkpt lat="44.05137" lon="0.50547">
        <ele>98</ele>
        <time>2016-05-10T14:30:37Z</time>
      </trkpt>
      <trkpt lat="44.06141" lon="0.50682">
        <ele>109</ele>
        <time>2016-05-10T15:28:37Z</time>
      </trkpt>
      <trkpt lat="44.06383" lon="0.51377">
        <ele>111</ele>
        <time>2016-05-10T16:30:37Z</time>
      </trkpt>
      <trkpt lat="44.068" lon="0.51088">
        <ele>128</ele>
        <time>2016-05-10T17:06:37Z</time>
      </trkpt>
      <trkpt lat="44.07241" lon="0.51906">
        <ele>107</ele>
        <time>2016-05-10T17:58:37Z</time>
      </trkpt>
      <trkpt lat="44.07632" lon="0.51821">
        <ele>113</ele>
        <time>2016-05-10T19:06:37Z</time>
      </trkpt>
      <trkpt lat="44.08096" lon="0.52173">
        <ele>120</ele>
        <time>2016-05-10T20:00:37Z</time>
      </trkpt>
      <trkpt lat="44.08407" lon="0.52963">
        <ele>125</ele>
        <time>2016-05-10T21:08:37Z</time>
      </trkpt>
      <trkpt lat="44.08739" lon="0.53279">
        <ele>146</ele>
        <time>2016-05-10T21:44:37Z</time>
      </trkpt>
      <trkpt lat="44.10193" lon="0.52888">
        <ele>182</ele>
        <time>2016-05-10T22:50:37Z</time>
      </trkpt>
      <trkpt lat="44.10881" lon="0.52265">
        <ele>181</ele>
        <time>2016-05-10T23:46:37Z</time>
      </trkpt>
      <trkpt lat="44.11246" lon="0.52564">
        <ele>196</ele>
        <time>2016-05-11T00:16:37Z</time>
      </trkpt>
      <trkpt lat="44.11529" lon="0.5362">
        <ele>190</ele>
        <time>2016-05-11T01:12:37Z</time>
      </trkpt>
      <trkpt lat="44.12604" lon="0.54314">
        <ele>147</ele>
        <time>2016-05-11T02:20:37Z</time>
      </trkpt>
      <trkpt lat="44.14288" lon="0.56439">
        <ele>108</ele>
        <time>2016-05-11T06:16:37Z</time>
      </trkpt>
      <trkpt lat="44.14851" lon="0.56252">
        <ele>139</ele>
        <time>2016-05-11T07:00:37Z</time>
      </trkpt>
      <trkpt lat="44.15458" lon="0.56427">
        <ele>153</ele>
        <time>2016-05-11T08:04:37Z</time>
      </trkpt>
      <trkpt lat="44.15872" lon="0.56787">
        <ele>124</ele>
        <time>2016-05-11T09:34:37Z</time>
      </trkpt>
      <trkpt lat="44.15933" lon="0.57478">
        <ele>85</ele>
        <time>2016-05-11T10:40:37Z</time>
      </trkpt>
      <trkpt lat="44.16325" lon="0.57859">
        <ele>77</ele>
        <time>2016-05-11T11:22:37Z</time>
      </trkpt>
      <trkpt lat="44.16671" lon="0.58922">
        <ele>65</ele>
        <time>2016-05-11T14:52:37Z</time>
      </trkpt>
      <trkpt lat="44.16873" lon="0.6029">
        <ele>59</ele>
        <time>2016-05-11T16:48:37Z</time>
      </trkpt>
      <trkpt lat="44.16738" lon="0.60618">
        <ele>63</ele>
        <time>2016-05-11T18:00:37Z</time>
      </trkpt>
      <trkpt lat="44.17027" lon="0.60989">
        <ele>63</ele>
        <time>2016-05-11T20:40:37Z</time>
      </trkpt>
      <trkpt lat="44.17266" lon="0.61825">
        <ele>46</ele>
        <time>2016-05-11T21:44:37Z</time>
      </trkpt>
      <trkpt lat="44.18991" lon="0.61313">
        <ele>44</ele>
        <time>2016-05-12T02:08:37Z</time>
      </trkpt>
      <trkpt lat="44.19212" lon="0.61541">
        <ele>47</ele>
        <time>2016-05-12T03:36:37Z</time>
      </trkpt>
      <trkpt lat="44.19365" lon="0.61374">
        <ele>48</ele>
        <time>2016-05-12T04:28:37Z</time>
      </trkpt>
      <trkpt lat="44.1922" lon="0.61532">
        <ele>47</ele>
        <time>2016-05-12T05:00:37Z</time>
      </trkpt>
      <trkpt lat="44.19062" lon="0.61365">
        <ele>45</ele>
        <time>2016-05-12T05:24:37Z</time>
      </trkpt>
      <trkpt lat="44.20017" lon="0.61209">
        <ele>45</ele>
        <time>2016-05-12T06:50:37Z</time>
      </trkpt>
    </trkseg>
  </trk>
  <rte>
    <name><![CDATA[--Condom-- OR-6031851:clm Grand Prix Henry Desgrange]]></name>
    <desc><![CDATA[Generated from track --Condom-- OR-6031851:clm Grand Prix Henry Desgrange]]></desc>
      <rtept lat="43.95853" lon="0.37482">
        <ele>78</ele>
        <name><![CDATA[RPT001]]></name>
      </rtept>
      <rtept lat="43.95712" lon="0.37651">
        <ele>84</ele>
        <name><![CDATA[RPT002]]></name>
      </rtept>
      <rtept lat="43.9701" lon="0.40303">
        <ele>173</ele>
        <name><![CDATA[RPT003]]></name>
      </rtept>
      <rtept lat="43.98189" lon="0.41574">
        <ele>161</ele>
        <name><![CDATA[RPT004]]></name>
      </rtept>
      <rtept lat="43.98531" lon="0.41542">
        <ele>149</ele>
        <name><![CDATA[RPT005]]></name>
      </rtept>
      <rtept lat="43.9883" lon="0.42369">
        <ele>108</ele>
        <name><![CDATA[RPT006]]></name>
      </rtept>
      <rtept lat="43.99639" lon="0.43177">
        <ele>110</ele>
        <name><![CDATA[RPT007]]></name>
      </rtept>
      <rtept lat="44.00722" lon="0.43547">
        <ele>94</ele>
        <name><![CDATA[RPT008]]></name>
      </rtept>
      <rtept lat="44.00801" lon="0.43775">
        <ele>93</ele>
        <name><![CDATA[RPT009]]></name>
      </rtept>
      <rtept lat="44.01721" lon="0.44263">
        <ele>97</ele>
        <name><![CDATA[RPT010]]></name>
      </rtept>
      <rtept lat="44.02276" lon="0.45247">
        <ele>129</ele>
        <name><![CDATA[RPT011]]></name>
      </rtept>
      <rtept lat="44.02569" lon="0.45469">
        <ele>128</ele>
        <name><![CDATA[RPT012]]></name>
      </rtept>
      <rtept lat="44.02872" lon="0.46451">
        <ele>104</ele>
        <name><![CDATA[RPT013]]></name>
      </rtept>
      <rtept lat="44.03549" lon="0.4691">
        <ele>99</ele>
        <name><![CDATA[RPT014]]></name>
      </rtept>
      <rtept lat="44.03875" lon="0.48058">
        <ele>143</ele>
        <name><![CDATA[RPT015]]></name>
      </rtept>
      <rtept lat="44.04159" lon="0.48107">
        <ele>159</ele>
        <name><![CDATA[RPT016]]></name>
      </rtept>
      <rtept lat="44.04121" lon="0.48776">
        <ele>141</ele>
        <name><![CDATA[RPT017]]></name>
      </rtept>
      <rtept lat="44.04784" lon="0.49475">
        <ele>120</ele>
        <name><![CDATA[RPT018]]></name>
      </rtept>
      <rtept lat="44.04874" lon="0.50168">
        <ele>108</ele>
        <name><![CDATA[RPT019]]></name>
      </rtept>
      <rtept lat="44.05137" lon="0.50547">
        <ele>98</ele>
        <name><![CDATA[RPT020]]></name>
      </rtept>
      <rtept lat="44.06141" lon="0.50682">
        <ele>109</ele>
        <name><![CDATA[RPT021]]></name>
      </rtept>
      <rtept lat="44.06383" lon="0.51377">
        <ele>111</ele>
        <name><![CDATA[RPT022]]></name>
      </rtept>
      <rtept lat="44.068" lon="0.51088">
        <ele>128</ele>
        <name><![CDATA[RPT023]]></name>
      </rtept>
      <rtept lat="44.07241" lon="0.51906">
        <ele>107</ele>
        <name><![CDATA[RPT024]]></name>
      </rtept>
      <rtept lat="44.07632" lon="0.51821">
        <ele>113</ele>
        <name><![CDATA[RPT025]]></name>
      </rtept>
      <rtept lat="44.08096" lon="0.52173">
        <ele>120</ele>
        <name><![CDATA[RPT026]]></name>
      </rtept>
      <rtept lat="44.08407" lon="0.52963">
        <ele>125</ele>
        <name><![CDATA[RPT027]]></name>
      </rtept>
      <rtept lat="44.08739" lon="0.53279">
        <ele>146</ele>
        <name><![CDATA[RPT028]]></name>
      </rtept>
      <rtept lat="44.10193" lon="0.52888">
        <ele>182</ele>
        <name><![CDATA[RPT029]]></name>
      </rtept>
      <rtept lat="44.10881" lon="0.52265">
        <ele>181</ele>
        <name><![CDATA[RPT030]]></name>
      </rtept>
      <rtept lat="44.11246" lon="0.52564">
        <ele>196</ele>
        <name><![CDATA[RPT031]]></name>
      </rtept>
      <rtept lat="44.11529" lon="0.5362">
        <ele>190</ele>
        <name><![CDATA[RPT032]]></name>
      </rtept>
      <rtept lat="44.12604" lon="0.54314">
        <ele>147</ele>
        <name><![CDATA[RPT033]]></name>
      </rtept>
      <rtept lat="44.14288" lon="0.56439">
        <ele>108</ele>
        <name><![CDATA[RPT034]]></name>
      </rtept>
      <rtept lat="44.14851" lon="0.56252">
        <ele>139</ele>
        <name><![CDATA[RPT035]]></name>
      </rtept>
      <rtept lat="44.15458" lon="0.56427">
        <ele>153</ele>
        <name><![CDATA[RPT036]]></name>
      </rtept>
      <rtept lat="44.15872" lon="0.56787">
        <ele>124</ele>
        <name><![CDATA[RPT037]]></name>
      </rtept>
      <rtept lat="44.15933" lon="0.57478">
        <ele>85</ele>
        <name><![CDATA[RPT038]]></name>
      </rtept>
      <rtept lat="44.16325" lon="0.57859">
        <ele>77</ele>
        <name><![CDATA[RPT039]]></name>
      </rtept>
      <rtept lat="44.16671" lon="0.58922">
        <ele>65</ele>
        <name><![CDATA[RPT040]]></name>
      </rtept>
      <rtept lat="44.16873" lon="0.6029">
        <ele>59</ele>
        <name><![CDATA[RPT041]]></name>
      </rtept>
      <rtept lat="44.16738" lon="0.60618">
        <ele>63</ele>
        <name><![CDATA[RPT042]]></name>
      </rtept>
      <rtept lat="44.17027" lon="0.60989">
        <ele>63</ele>
        <name><![CDATA[RPT043]]></name>
      </rtept>
      <rtept lat="44.17266" lon="0.61825">
        <ele>46</ele>
        <name><![CDATA[RPT044]]></name>
      </rtept>
      <rtept lat="44.18991" lon="0.61313">
        <ele>44</ele>
        <name><![CDATA[RPT045]]></name>
      </rtept>
      <rtept lat="44.19212" lon="0.61541">
        <ele>47</ele>
        <name><![CDATA[RPT046]]></name>
      </rtept>
      <rtept lat="44.19365" lon="0.61374">
        <ele>48</ele>
        <name><![CDATA[RPT047]]></name>
      </rtept>
      <rtept lat="44.1922" lon="0.61532">
        <ele>47</ele>
        <name><![CDATA[RPT048]]></name>
      </rtept>
      <rtept lat="44.19062" lon="0.61365">
        <ele>45</ele>
        <name><![CDATA[RPT049]]></name>
      </rtept>
      <rtept lat="44.20017" lon="0.61209">
        <ele>45</ele>
        <name><![CDATA[RPT050]]></name>
      </rtept>
    </rte>
</gpx>